Time;durP1;ratioP1;P1;durP2;ratioP2;P2;SDS_P1;SDS_P2;PMS_P1;PMS_P2;Temp;Humidity;BMP_temperature;BMP_pressure;BME280_temperature;BME280_humidity;BME280_pressure;Samples;Min_cycle;Max_cycle;Signal;HPM_P1;HPM_P2
2021/08/17 00:00:06;;;;;;;18.33;11.80;;;16.10;99.90;;;;;;5015414;28;20546;-80
2021/08/17 00:02:33;;;;;;;20.30;11.90;;;16.10;99.90;;;;;;5023146;28;20524;-80
2021/08/17 00:05:00;;;;;;;18.70;11.03;;;16.00;99.90;;;;;;5018526;28;21190;-81
2021/08/17 00:07:28;;;;;;;18.73;10.73;;;16.10;99.90;;;;;;5020296;28;21145;-80
2021/08/17 00:09:55;;;;;;;26.00;12.10;;;16.00;99.90;;;;;;5019768;28;20465;-80
2021/08/17 00:12:22;;;;;;;19.67;11.07;;;16.00;99.90;;;;;;5016706;28;20471;-82
2021/08/17 00:14:50;;;;;;;17.67;10.87;;;16.00;99.90;;;;;;5022089;28;20464;-79
2021/08/17 00:17:18;;;;;;;21.17;12.00;;;16.00;99.90;;;;;;5021403;28;20594;-80
2021/08/17 00:19:46;;;;;;;20.67;12.33;;;16.00;99.90;;;;;;5024000;28;20464;-79
2021/08/17 00:22:14;;;;;;;26.17;13.03;;;16.00;99.90;;;;;;5021288;28;20464;-79
2021/08/17 00:24:43;;;;;;;25.53;13.73;;;16.00;99.90;;;;;;5015487;28;20492;-80
2021/08/17 00:27:10;;;;;;;23.13;12.63;;;16.00;99.90;;;;;;5018643;28;20483;-79
2021/08/17 00:29:37;;;;;;;23.30;13.93;;;16.00;99.90;;;;;;5022421;28;20456;-80
2021/08/17 00:32:05;;;;;;;26.30;14.57;;;16.00;99.90;;;;;;5022285;28;20563;-80
2021/08/17 00:34:32;;;;;;;26.63;16.00;;;16.00;99.90;;;;;;5020323;28;20978;-82
2021/08/17 00:36:59;;;;;;;28.97;15.37;;;16.00;99.90;;;;;;5021416;28;20533;-82
2021/08/17 00:39:26;;;;;;;31.13;16.60;;;16.00;99.90;;;;;;5020430;28;20464;-79
2021/08/17 00:41:56;;;;;;;27.93;15.47;;;16.00;99.90;;;;;;5013525;28;20471;-80
2021/08/17 00:44:25;;;;;;;29.00;14.63;;;16.00;99.90;;;;;;5016501;28;20487;-80
2021/08/17 00:46:52;;;;;;;30.27;16.40;;;16.00;99.90;;;;;;5013031;28;20953;-80
2021/08/17 00:49:20;;;;;;;28.20;15.47;;;16.00;99.90;;;;;;5018028;28;20472;-80
2021/08/17 00:51:48;;;;;;;30.20;16.30;;;16.00;99.90;;;;;;5020592;28;20489;-80
2021/08/17 00:54:15;;;;;;;31.60;17.47;;;16.00;99.90;;;;;;5023569;28;20818;-80
2021/08/17 00:56:43;;;;;;;33.60;15.90;;;16.00;99.90;;;;;;5017526;28;20491;-80
2021/08/17 00:59:13;;;;;;;30.63;17.80;;;16.00;99.90;;;;;;5018637;28;20466;-80
2021/08/17 01:01:41;;;;;;;33.53;18.40;;;16.00;99.90;;;;;;5018330;28;20492;-84
2021/08/17 01:04:08;;;;;;;32.47;18.13;;;16.00;99.90;;;;;;5013871;28;20817;-80
2021/08/17 01:06:37;;;;;;;36.60;18.07;;;16.00;99.90;;;;;;5022357;28;20468;-80
2021/08/17 01:09:05;;;;;;;35.93;17.00;;;16.00;99.90;;;;;;5020814;28;20547;-79
2021/08/17 01:11:32;;;;;;;34.90;19.00;;;16.00;99.90;;;;;;5017429;28;20461;-82
2021/08/17 01:13:59;;;;;;;31.50;18.23;;;16.00;99.90;;;;;;5017665;28;20482;-80
2021/08/17 01:16:28;;;;;;;34.67;19.83;;;16.00;99.90;;;;;;5017900;28;20456;-79
2021/08/17 01:18:55;;;;;;;40.20;19.30;;;16.00;99.90;;;;;;5014273;28;20460;-80
2021/08/17 01:21:22;;;;;;;36.87;19.97;;;16.00;99.90;;;;;;5014982;28;20585;-80
2021/08/17 01:23:49;;;;;;;32.30;17.83;;;16.00;99.90;;;;;;5017590;28;20468;-82
2021/08/17 01:26:17;;;;;;;35.77;18.80;;;16.00;99.90;;;;;;5018218;28;20836;-83
2021/08/17 01:28:45;;;;;;;32.30;17.83;;;16.00;99.90;;;;;;5017838;28;21020;-82
2021/08/17 01:31:13;;;;;;;30.17;18.57;;;16.00;99.90;;;;;;5018235;28;20464;-81
2021/08/17 01:33:40;;;;;;;39.73;17.27;;;16.00;99.90;;;;;;5019829;28;20805;-80
2021/08/17 01:36:07;;;;;;;35.43;19.40;;;16.00;99.90;;;;;;5012347;28;20477;-80
2021/08/17 01:38:45;;;;;;;39.00;19.10;;;16.10;99.90;;;;;;5018862;28;20515;-83
2021/08/17 01:41:12;;;;;;;30.73;18.43;;;16.00;99.90;;;;;;5016772;28;21257;-81
2021/08/17 01:43:41;;;;;;;31.70;18.73;;;16.10;99.90;;;;;;5019902;28;20468;-84
2021/08/17 01:46:08;;;;;;;35.67;18.53;;;16.00;99.90;;;;;;5019171;28;20484;-80
2021/08/17 01:48:35;;;;;;;35.97;20.40;;;16.00;99.90;;;;;;5018627;28;20468;-80
2021/08/17 01:51:03;;;;;;;39.90;20.37;;;16.10;99.90;;;;;;5018938;28;20990;-80
2021/08/17 01:53:30;;;;;;;35.17;19.27;;;16.10;99.90;;;;;;5018707;28;20464;-80
2021/08/17 01:55:59;;;;;;;37.03;19.90;;;16.00;99.90;;;;;;5016627;28;20460;-79
2021/08/17 01:58:26;;;;;;;37.07;20.97;;;16.00;99.90;;;;;;5018396;28;20469;-81
2021/08/17 02:00:55;;;;;;;37.20;19.70;;;16.00;99.90;;;;;;5011950;28;20461;-80
2021/08/17 02:03:22;;;;;;;35.33;19.20;;;16.00;99.90;;;;;;5019601;28;20465;-83
2021/08/17 02:05:49;;;;;;;37.03;18.60;;;16.00;99.90;;;;;;5019623;28;20494;-80
2021/08/17 02:08:16;;;;;;;37.73;19.07;;;16.00;99.90;;;;;;5014854;28;20870;-79
2021/08/17 02:10:43;;;;;;;40.83;21.00;;;16.00;99.90;;;;;;5018484;28;20986;-80
2021/08/17 02:13:11;;;;;;;37.43;20.37;;;16.00;99.90;;;;;;5020287;28;20859;-80
2021/08/17 02:15:38;;;;;;;35.20;18.30;;;16.00;99.90;;;;;;5018579;28;20547;-80
2021/08/17 02:18:06;;;;;;;37.87;20.27;;;16.00;99.90;;;;;;5018998;28;20492;-81
2021/08/17 02:20:34;;;;;;;38.57;20.20;;;16.00;99.90;;;;;;5019981;28;20494;-80
2021/08/17 02:23:00;;;;;;;34.60;18.53;;;16.00;99.90;;;;;;5014680;28;20556;-80
2021/08/17 02:25:27;;;;;;;41.00;19.73;;;15.90;99.90;;;;;;5019088;28;20562;-80
2021/08/17 02:27:54;;;;;;;40.30;19.67;;;15.90;99.90;;;;;;5020000;28;20466;-83
2021/08/17 02:30:21;;;;;;;29.37;18.10;;;15.90;99.90;;;;;;5021809;28;20552;-79
2021/08/17 02:32:48;;;;;;;32.90;19.77;;;15.90;99.90;;;;;;5017594;28;20494;-82
2021/08/17 02:35:17;;;;;;;29.17;17.00;;;15.90;99.90;;;;;;5018226;28;20518;-80
2021/08/17 02:37:44;;;;;;;33.77;18.90;;;15.90;99.90;;;;;;5012226;28;20956;-84
2021/08/17 02:40:11;;;;;;;32.27;19.03;;;15.90;99.90;;;;;;5019883;28;20474;-80
2021/08/17 02:42:39;;;;;;;36.67;19.73;;;15.90;99.90;;;;;;5017629;28;20550;-80
2021/08/17 02:45:07;;;;;;;35.93;19.33;;;15.90;99.90;;;;;;5019192;28;21021;-80
2021/08/17 02:47:34;;;;;;;31.50;17.37;;;15.90;99.90;;;;;;5022574;28;20468;-80
2021/08/17 02:50:03;;;;;;;30.77;18.03;;;15.90;99.90;;;;;;5014181;28;20475;-84
2021/08/17 02:52:31;;;;;;;30.47;16.73;;;15.90;99.90;;;;;;5016680;28;20468;-83
2021/08/17 02:54:58;;;;;;;37.23;17.60;;;15.90;99.90;;;;;;5013552;28;20514;-80
2021/08/17 02:57:25;;;;;;;31.40;16.50;;;15.90;99.90;;;;;;5009483;28;20467;-81
2021/08/17 02:59:52;;;;;;;33.57;17.63;;;15.80;99.90;;;;;;5021763;28;20471;-80
2021/08/17 03:02:19;;;;;;;32.50;17.23;;;15.80;99.90;;;;;;5019133;28;20494;-80
2021/08/17 03:04:46;;;;;;;29.33;16.53;;;15.80;99.90;;;;;;5013412;28;20484;-80
2021/08/17 03:07:14;;;;;;;30.50;18.50;;;15.80;99.90;;;;;;5019607;28;20468;-80
2021/08/17 03:09:42;;;;;;;31.37;18.83;;;15.80;99.90;;;;;;5018879;28;20468;-80
2021/08/17 03:12:09;;;;;;;30.60;17.17;;;15.80;99.90;;;;;;5011247;28;20461;-80
2021/08/17 03:14:36;;;;;;;39.97;18.70;;;15.80;99.90;;;;;;5011101;28;20464;-80
2021/08/17 03:17:04;;;;;;;34.93;19.00;;;15.80;99.90;;;;;;5018720;28;20472;-84
2021/08/17 03:19:31;;;;;;;34.00;19.87;;;15.80;99.90;;;;;;5011435;28;20477;-80
2021/08/17 03:21:58;;;;;;;32.37;19.13;;;15.80;99.90;;;;;;5014193;28;20526;-80
2021/08/17 03:24:25;;;;;;;30.87;17.77;;;15.70;99.90;;;;;;5009198;28;20463;-79
2021/08/17 03:26:53;;;;;;;38.97;18.30;;;15.80;99.90;;;;;;5015428;28;20460;-81
2021/08/17 03:29:20;;;;;;;31.47;18.73;;;15.70;99.90;;;;;;5013509;28;20478;-80
2021/08/17 03:31:48;;;;;;;33.10;19.07;;;15.70;99.90;;;;;;5020169;28;20885;-85
2021/08/17 03:34:15;;;;;;;33.37;18.30;;;15.70;99.90;;;;;;5014795;28;20472;-83
2021/08/17 03:36:42;;;;;;;34.93;18.37;;;15.70;99.90;;;;;;5014054;28;20468;-82
2021/08/17 03:39:09;;;;;;;35.67;18.73;;;15.80;99.90;;;;;;5016698;28;20468;-81
2021/08/17 03:41:36;;;;;;;36.97;19.47;;;15.80;99.90;;;;;;5016740;28;20472;-80
2021/08/17 03:44:05;;;;;;;37.47;18.70;;;15.80;99.90;;;;;;5021231;28;20542;-80
2021/08/17 03:46:32;;;;;;;33.60;18.30;;;15.80;99.90;;;;;;5015938;28;20493;-80
2021/08/17 03:48:59;;;;;;;36.30;19.47;;;15.80;99.90;;;;;;5013405;28;20470;-79
2021/08/17 03:51:26;;;;;;;34.33;17.60;;;15.80;99.90;;;;;;5019076;28;20567;-80
2021/08/17 03:53:53;;;;;;;32.33;18.43;;;15.80;99.90;;;;;;5011693;28;20466;-81
2021/08/17 03:56:20;;;;;;;32.73;17.50;;;15.80;99.90;;;;;;5011739;28;20475;-80
2021/08/17 03:58:47;;;;;;;32.60;17.00;;;15.80;99.90;;;;;;5014327;28;20468;-80
2021/08/17 04:01:17;;;;;;;33.00;18.17;;;15.80;99.90;;;;;;5005965;28;20558;-79
2021/08/17 04:03:45;;;;;;;33.30;17.70;;;15.70;99.90;;;;;;5013236;28;20474;-80
2021/08/17 04:06:12;;;;;;;31.90;16.53;;;15.80;99.90;;;;;;5015063;28;20496;-81
2021/08/17 04:08:39;;;;;;;33.87;18.60;;;15.80;99.90;;;;;;5017220;28;20559;-80
2021/08/17 04:11:06;;;;;;;34.47;18.80;;;15.80;99.90;;;;;;5015837;28;20466;-80
2021/08/17 04:13:34;;;;;;;31.00;17.57;;;15.70;99.90;;;;;;5005722;28;20559;-79
2021/08/17 04:16:01;;;;;;;32.30;17.43;;;15.80;99.90;;;;;;5011778;28;20472;-80
2021/08/17 04:18:30;;;;;;;32.97;16.47;;;15.80;99.90;;;;;;5017694;28;20954;-81
2021/08/17 04:20:58;;;;;;;31.13;17.47;;;15.80;99.90;;;;;;5018720;28;20461;-82
2021/08/17 04:23:25;;;;;;;30.47;17.40;;;15.80;99.90;;;;;;5010015;28;20544;-83
2021/08/17 04:25:52;;;;;;;30.57;15.70;;;15.80;99.90;;;;;;5019053;28;20598;-81
2021/08/17 04:28:19;;;;;;;34.00;17.23;;;15.80;99.90;;;;;;5025204;28;20844;-81
2021/08/17 04:30:46;;;;;;;35.43;19.40;;;15.70;99.90;;;;;;5011951;28;20469;-80
2021/08/17 04:33:13;;;;;;;40.07;20.93;;;15.80;99.90;;;;;;5009252;28;20487;-84
2021/08/17 04:35:42;;;;;;;34.07;18.87;;;15.80;99.90;;;;;;5011614;28;20463;-79
2021/08/17 04:38:09;;;;;;;33.00;18.13;;;15.70;99.90;;;;;;5021063;28;20460;-80
2021/08/17 04:40:37;;;;;;;34.77;20.17;;;15.70;99.90;;;;;;5019253;28;20995;-83
2021/08/17 04:43:03;;;;;;;33.37;19.07;;;15.70;99.90;;;;;;5020295;28;20472;-80
2021/08/17 04:45:31;;;;;;;31.90;18.53;;;15.70;99.90;;;;;;5009367;28;20487;-82
2021/08/17 04:48:00;;;;;;;33.10;19.33;;;15.70;99.90;;;;;;5019736;28;20478;-81
2021/08/17 04:50:27;;;;;;;36.97;20.47;;;15.70;99.90;;;;;;5017343;28;20571;-80
2021/08/17 04:52:56;;;;;;;32.93;18.77;;;15.70;99.90;;;;;;5015668;28;20471;-83
2021/08/17 04:55:23;;;;;;;36.40;17.87;;;15.70;99.90;;;;;;5028026;28;20471;-83
2021/08/17 04:57:52;;;;;;;39.83;18.53;;;15.70;99.90;;;;;;5017962;28;20460;-80
2021/08/17 05:00:21;;;;;;;26.80;16.63;;;15.80;99.90;;;;;;5015813;28;20467;-83
2021/08/17 05:02:48;;;;;;;31.53;16.87;;;15.80;99.90;;;;;;5017488;28;20961;-81
2021/08/17 05:05:16;;;;;;;34.40;16.90;;;15.80;99.90;;;;;;5012339;28;21004;-83
2021/08/17 05:07:44;;;;;;;32.30;18.17;;;15.80;99.90;;;;;;5015778;28;20499;-82
2021/08/17 05:10:15;;;;;;;31.90;16.67;;;15.80;99.90;;;;;;5020295;28;20472;-80
2021/08/17 05:12:44;;;;;;;30.17;17.50;;;15.80;99.90;;;;;;5020276;28;20467;-80
2021/08/17 05:15:13;;;;;;;40.70;16.77;;;15.90;99.90;;;;;;5017938;28;20466;-80
2021/08/17 05:17:42;;;;;;;35.13;18.13;;;15.90;99.90;;;;;;5014319;28;20509;-80
2021/08/17 05:20:11;;;;;;;31.60;17.60;;;15.90;99.90;;;;;;5023979;28;20828;-80
2021/08/17 05:22:38;;;;;;;37.97;19.03;;;15.90;99.90;;;;;;5022628;28;20471;-83
2021/08/17 05:25:06;;;;;;;34.57;19.17;;;16.00;99.90;;;;;;5015672;28;20464;-80
2021/08/17 05:27:35;;;;;;;34.80;18.33;;;16.00;99.90;;;;;;5023529;28;20468;-80
2021/08/17 05:30:02;;;;;;;33.40;17.30;;;16.00;99.90;;;;;;5018760;28;20483;-80
2021/08/17 05:32:28;;;;;;;41.83;19.73;;;16.00;99.90;;;;;;5019812;28;20472;-80
2021/08/17 05:34:55;;;;;;;42.67;19.67;;;16.10;99.90;;;;;;5016908;28;20881;-81
2021/08/17 05:37:22;;;;;;;48.73;20.17;;;16.10;99.90;;;;;;5022964;28;20989;-80
2021/08/17 05:39:50;;;;;;;39.70;20.63;;;16.10;99.90;;;;;;5018580;28;20468;-83
2021/08/17 05:42:17;;;;;;;40.87;18.63;;;16.10;99.90;;;;;;5020414;28;20467;-83
2021/08/17 05:44:46;;;;;;;34.80;18.23;;;16.20;99.90;;;;;;5020050;28;20474;-80
2021/08/17 05:47:14;;;;;;;43.23;20.33;;;16.20;99.90;;;;;;5021107;28;21193;-83
2021/08/17 05:49:41;;;;;;;34.30;19.90;;;16.20;99.90;;;;;;5017912;28;20461;-83
2021/08/17 05:52:10;;;;;;;35.90;17.50;;;16.20;99.90;;;;;;5012721;28;20472;-80
2021/08/17 05:54:37;;;;;;;36.23;19.63;;;16.20;99.90;;;;;;5012777;28;20464;-80
2021/08/17 05:57:04;;;;;;;40.77;18.70;;;16.30;99.90;;;;;;5019845;28;20462;-80
2021/08/17 05:59:31;;;;;;;37.90;19.70;;;16.30;99.90;;;;;;5016467;28;20488;-81
2021/08/17 06:02:02;;;;;;;39.43;18.73;;;16.30;99.90;;;;;;5016689;28;20682;-80
2021/08/17 06:04:29;;;;;;;28.27;16.80;;;16.30;99.90;;;;;;5014504;28;20829;-80
2021/08/17 06:06:56;;;;;;;38.90;18.57;;;16.40;99.90;;;;;;5014765;28;20575;-81
2021/08/17 06:09:25;;;;;;;39.10;17.53;;;16.40;99.90;;;;;;5013163;28;20492;-84
2021/08/17 06:11:57;;;;;;;38.10;17.43;;;16.40;99.90;;;;;;5020069;28;20499;-81
2021/08/17 06:14:24;;;;;;;37.60;19.40;;;16.40;99.90;;;;;;5023863;28;20460;-82
2021/08/17 06:16:51;;;;;;;37.47;17.27;;;16.50;99.90;;;;;;5018065;28;20469;-84
2021/08/17 06:19:20;;;;;;;34.83;17.73;;;16.50;99.90;;;;;;5016064;28;21010;-82
2021/08/17 06:21:47;;;;;;;41.60;19.47;;;16.50;99.90;;;;;;5014210;28;20466;-81
2021/08/17 06:24:14;;;;;;;33.30;18.03;;;16.60;99.90;;;;;;5020330;28;21102;-83
2021/08/17 06:26:41;;;;;;;36.67;17.37;;;16.60;99.90;;;;;;5018182;28;20488;-80
2021/08/17 06:29:08;;;;;;;35.47;18.53;;;16.60;99.90;;;;;;5015632;28;20473;-80
2021/08/17 06:31:35;;;;;;;36.60;16.73;;;16.70;99.90;;;;;;5015101;28;20466;-81
2021/08/17 06:34:02;;;;;;;29.70;17.53;;;16.70;99.90;;;;;;5013116;28;20470;-80
2021/08/17 06:36:30;;;;;;;30.60;17.77;;;16.80;99.90;;;;;;5015760;28;20488;-80
2021/08/17 06:38:58;;;;;;;38.13;17.90;;;16.80;99.90;;;;;;5015001;28;21235;-80
2021/08/17 06:41:25;;;;;;;32.30;17.00;;;16.80;99.90;;;;;;5009795;28;20477;-85
2021/08/17 06:43:52;;;;;;;34.20;16.53;;;16.90;99.90;;;;;;5018372;28;20515;-80
2021/08/17 06:46:19;;;;;;;35.90;17.57;;;17.00;99.90;;;;;;5016328;28;20505;-81
2021/08/17 06:48:46;;;;;;;39.10;18.80;;;17.00;99.90;;;;;;5016141;28;20482;-82
2021/08/17 06:51:13;;;;;;;33.07;17.03;;;17.10;99.90;;;;;;5012916;28;20462;-84
2021/08/17 06:53:41;;;;;;;32.13;16.93;;;17.10;99.90;;;;;;5011903;28;20853;-81
2021/08/17 06:56:09;;;;;;;30.17;18.40;;;17.10;99.90;;;;;;5012123;28;20471;-82
2021/08/17 06:58:36;;;;;;;28.80;17.00;;;17.20;99.90;;;;;;5016027;28;21035;-81
2021/08/17 07:01:03;;;;;;;30.13;16.53;;;17.20;99.90;;;;;;5022951;28;20465;-81
2021/08/17 07:03:31;;;;;;;28.50;15.90;;;17.20;99.90;;;;;;5017698;28;20886;-81
2021/08/17 07:05:58;;;;;;;34.70;17.70;;;17.20;99.90;;;;;;5011040;28;20483;-81
2021/08/17 07:08:26;;;;;;;40.00;17.20;;;17.30;99.90;;;;;;5013053;28;20483;-84
2021/08/17 07:10:54;;;;;;;38.47;18.33;;;17.30;99.90;;;;;;5009672;28;20972;-83
2021/08/17 07:13:21;;;;;;;36.90;17.93;;;17.40;99.90;;;;;;5011544;28;20496;-82
2021/08/17 07:15:48;;;;;;;34.10;18.90;;;17.40;99.90;;;;;;5020468;28;20463;-82
2021/08/17 07:18:15;;;;;;;33.23;18.13;;;17.40;99.90;;;;;;5012131;28;20470;-82
2021/08/17 07:20:42;;;;;;;37.20;19.10;;;17.40;99.90;;;;;;5011066;28;20470;-81
2021/08/17 07:23:09;;;;;;;31.97;17.37;;;17.40;99.90;;;;;;5009958;28;20482;-84
2021/08/17 07:25:37;;;;;;;27.90;17.73;;;17.50;99.90;;;;;;5013291;28;20892;-82
2021/08/17 07:28:05;;;;;;;32.20;17.20;;;17.40;99.90;;;;;;5030498;28;20892;-82
2021/08/17 07:30:32;;;;;;;34.87;16.90;;;17.50;99.90;;;;;;5009388;28;20474;-82
2021/08/17 07:32:59;;;;;;;42.23;15.90;;;17.50;99.90;;;;;;5015009;28;20532;-83
2021/08/17 07:35:26;;;;;;;31.57;15.87;;;17.50;99.90;;;;;;5017311;28;20469;-84
2021/08/17 07:37:54;;;;;;;27.90;15.97;;;17.50;99.90;;;;;;5012179;28;20466;-82
2021/08/17 07:40:21;;;;;;;31.00;15.93;;;17.50;99.90;;;;;;5013253;28;20469;-82
2021/08/17 07:42:48;;;;;;;30.30;17.47;;;17.50;99.90;;;;;;5014963;28;20473;-85
2021/08/17 07:45:17;;;;;;;25.40;13.40;;;17.50;99.90;;;;;;5014743;28;20475;-82
2021/08/17 07:47:45;;;;;;;31.30;17.03;;;17.60;99.90;;;;;;5019378;28;20490;-83
2021/08/17 07:50:13;;;;;;;26.70;16.20;;;17.70;99.90;;;;;;5014952;28;20472;-82
2021/08/17 07:52:41;;;;;;;25.87;15.60;;;17.70;99.90;;;;;;5021936;28;20463;-82
2021/08/17 07:55:10;;;;;;;31.30;15.27;;;17.70;99.90;;;;;;5014680;28;20843;-83
2021/08/17 07:57:37;;;;;;;29.13;15.57;;;17.80;99.90;;;;;;5014589;28;20561;-83
2021/08/17 08:00:06;;;;;;;32.77;15.60;;;17.80;99.90;;;;;;5018996;28;20503;-83
2021/08/17 08:02:34;;;;;;;23.70;14.37;;;17.80;99.90;;;;;;5018661;28;20493;-82
2021/08/17 08:05:01;;;;;;;27.00;15.00;;;17.80;99.90;;;;;;5024562;28;20466;-82
2021/08/17 08:07:28;;;;;;;29.20;14.53;;;17.80;99.90;;;;;;5024017;28;20508;-85
2021/08/17 08:09:55;;;;;;;27.33;15.17;;;17.80;99.90;;;;;;5017676;28;20463;-83
2021/08/17 08:12:22;;;;;;;25.00;14.20;;;17.90;99.90;;;;;;5019221;28;20472;-82
2021/08/17 08:14:50;;;;;;;25.73;15.60;;;17.90;99.90;;;;;;5020510;28;20554;-82
2021/08/17 08:17:17;;;;;;;25.23;14.50;;;18.00;99.90;;;;;;5023870;28;20467;-82
2021/08/17 08:19:45;;;;;;;31.47;15.67;;;18.10;99.90;;;;;;5021005;28;20971;-84
2021/08/17 08:22:12;;;;;;;22.10;13.80;;;18.10;99.90;;;;;;5016322;28;20466;-85
2021/08/17 08:24:39;;;;;;;24.73;14.70;;;18.20;99.90;;;;;;5017828;28;20473;-84
2021/08/17 08:27:06;;;;;;;26.67;15.57;;;18.20;99.90;;;;;;5021790;28;20491;-84
2021/08/17 08:29:34;;;;;;;21.30;14.30;;;18.20;99.90;;;;;;5022726;28;20468;-83
2021/08/17 08:32:01;;;;;;;30.27;15.23;;;18.20;99.90;;;;;;5024326;28;20466;-86
2021/08/17 08:34:28;;;;;;;28.00;15.50;;;18.30;99.90;;;;;;5019201;28;20560;-83
2021/08/17 08:36:57;;;;;;;24.73;13.50;;;18.30;99.90;;;;;;5021883;28;20471;-83
2021/08/17 08:39:24;;;;;;;22.33;12.60;;;18.30;99.90;;;;;;5021849;28;20470;-82
2021/08/17 08:41:51;;;;;;;19.77;12.73;;;18.30;99.90;;;;;;5019019;28;20847;-82
2021/08/17 08:44:18;;;;;;;23.30;14.30;;;18.30;99.90;;;;;;5022496;28;20482;-83
2021/08/17 08:46:46;;;;;;;21.57;12.77;;;18.40;99.90;;;;;;5023409;28;20495;-82
2021/08/17 08:49:16;;;;;;;24.30;14.33;;;18.50;99.90;;;;;;5015146;28;20464;-85
2021/08/17 08:51:44;;;;;;;20.50;11.90;;;18.50;99.90;;;;;;5022510;28;20567;-84
2021/08/17 08:54:12;;;;;;;24.37;13.30;;;18.50;99.90;;;;;;5018583;28;20758;-83
2021/08/17 08:56:39;;;;;;;28.63;14.03;;;18.60;99.90;;;;;;5017264;28;21030;-86
2021/08/17 08:59:06;;;;;;;23.93;13.47;;;18.60;99.90;;;;;;5018763;28;20911;-83
2021/08/17 09:01:33;;;;;;;27.30;13.67;;;18.50;99.90;;;;;;5017752;28;20491;-85
2021/08/17 09:04:00;;;;;;;20.20;12.73;;;18.50;99.90;;;;;;5013437;28;20463;-83
2021/08/17 09:06:29;;;;;;;22.27;12.90;;;18.50;99.90;;;;;;5023570;28;20518;-83
2021/08/17 09:09:11;;;;;;;21.67;13.50;;;18.60;99.90;;;;;;5020815;28;20477;-83
2021/08/17 09:11:41;;;;;;;25.33;13.30;;;18.60;99.90;;;;;;5016476;28;20567;-85
2021/08/17 09:14:17;;;;;;;24.90;14.20;;;18.70;99.90;;;;;;5021236;28;20898;-86
2021/08/17 09:16:45;;;;;;;24.20;14.80;;;18.70;99.90;;;;;;5021470;28;20457;-84
2021/08/17 09:19:31;;;;;;;19.87;12.60;;;18.80;99.90;;;;;;5012614;28;20535;-84
2021/08/17 09:22:01;;;;;;;23.40;13.30;;;18.80;99.90;;;;;;5018912;28;20986;-84
2021/08/17 09:24:31;;;;;;;23.57;13.13;;;18.80;99.90;;;;;;5017676;28;20461;-84
2021/08/17 09:27:01;;;;;;;21.50;13.07;;;18.80;99.90;;;;;;5011957;28;20501;-84
2021/08/17 09:29:32;;;;;;;22.73;13.13;;;18.90;99.90;;;;;;5011097;28;20550;-84
2021/08/17 09:32:02;;;;;;;26.47;14.23;;;18.90;99.90;;;;;;5013230;28;20481;-84
2021/08/17 09:34:35;;;;;;;27.33;13.27;;;18.90;99.90;;;;;;5014030;28;20960;-83
2021/08/17 09:37:08;;;;;;;20.83;12.80;;;18.90;99.90;;;;;;5017050;28;20534;-84
2021/08/17 09:39:39;;;;;;;21.63;14.00;;;18.90;99.90;;;;;;5024896;28;20995;-84
2021/08/17 09:42:17;;;;;;;20.87;12.40;;;18.90;99.90;;;;;;5017720;28;20478;-83
2021/08/17 09:44:46;;;;;;;25.37;14.10;;;18.90;99.90;;;;;;5015017;28;20892;-84
2021/08/17 09:47:14;;;;;;;23.73;14.27;;;18.90;99.90;;;;;;5011876;28;20582;-84
2021/08/17 09:49:41;;;;;;;29.20;15.23;;;18.90;99.90;;;;;;5018941;28;20476;-84
2021/08/17 09:52:10;;;;;;;28.27;14.27;;;18.90;99.90;;;;;;5020874;28;20477;-84
2021/08/17 09:54:40;;;;;;;23.90;13.17;;;18.90;99.90;;;;;;5024623;28;20467;-87
2021/08/17 09:57:07;;;;;;;22.50;12.13;;;18.90;99.90;;;;;;5021425;28;20463;-86
2021/08/17 09:59:37;;;;;;;27.90;13.90;;;18.90;99.90;;;;;;5019079;28;20832;-84
2021/08/17 10:02:06;;;;;;;20.50;13.60;;;18.90;99.90;;;;;;5018565;28;20554;-86
2021/08/17 10:04:33;;;;;;;20.10;13.57;;;18.90;99.90;;;;;;5012631;28;20477;-86
2021/08/17 10:07:01;;;;;;;22.93;13.97;;;18.90;99.90;;;;;;5022025;28;20487;-84
2021/08/17 10:09:30;;;;;;;20.40;14.43;;;18.90;99.90;;;;;;5013033;28;20488;-85
2021/08/17 10:11:57;;;;;;;23.03;12.73;;;19.00;99.90;;;;;;5018668;28;21202;-84
2021/08/17 10:14:24;;;;;;;22.63;14.13;;;19.00;99.90;;;;;;5016094;28;20464;-83
2021/08/17 10:16:52;;;;;;;24.37;13.50;;;19.00;99.90;;;;;;5018812;28;20465;-84
2021/08/17 10:19:21;;;;;;;25.30;13.53;;;19.00;99.90;;;;;;5012603;28;21296;-85
2021/08/17 10:21:51;;;;;;;23.63;13.40;;;19.00;99.90;;;;;;5019682;28;21109;-84
2021/08/17 10:24:31;;;;;;;18.03;13.33;;;19.00;99.90;;;;;;5010067;28;20564;-84
2021/08/17 10:27:26;;;;;;;24.37;13.80;;;19.00;99.90;;;;;;5014634;28;21015;-81
2021/08/17 10:30:14;;;;;;;18.23;11.27;;;19.00;99.90;;;;;;5015092;28;20471;-82
2021/08/17 10:32:55;;;;;;;18.30;11.37;;;18.90;99.90;;;;;;5000988;28;20973;-82
2021/08/17 10:35:59;;;;;;;18.63;10.77;;;18.90;99.90;;;;;;5015061;28;20523;-81
2021/08/17 10:38:47;;;;;;;17.87;10.57;;;18.90;99.90;;;;;;5015515;28;20462;-81
2021/08/17 10:41:15;;;;;;;15.00;8.67;;;18.80;99.90;;;;;;5016787;28;20476;-81
2021/08/17 10:44:10;;;;;;;18.40;10.23;;;18.80;99.90;;;;;;5020597;28;20496;-82
2021/08/17 10:46:43;;;;;;;14.63;9.73;;;18.70;99.90;;;;;;5009991;28;20558;-82
2021/08/17 10:49:31;;;;;;;13.80;9.10;;;18.70;99.90;;;;;;5010444;28;21146;-81
2021/08/17 10:52:00;;;;;;;16.43;10.70;;;18.60;99.90;;;;;;5008735;28;20472;-81
2021/08/17 10:54:28;;;;;;;10.93;8.20;;;18.60;99.90;;;;;;5013713;28;20473;-82
2021/08/17 10:56:55;;;;;;;15.13;9.97;;;18.60;99.90;;;;;;5017939;28;20470;-81
2021/08/17 10:59:41;;;;;;;14.03;8.70;;;18.60;99.90;;;;;;5015596;28;20487;-81
2021/08/17 11:02:09;;;;;;;12.83;8.77;;;18.50;99.90;;;;;;5015616;28;20488;-81
2021/08/17 11:04:42;;;;;;;10.60;8.40;;;18.50;99.90;;;;;;5015393;28;20494;-82
2021/08/17 11:07:27;;;;;;;12.23;8.77;;;18.40;99.90;;;;;;5014048;28;20490;-82
2021/08/17 11:09:55;;;;;;;13.57;8.47;;;18.40;99.90;;;;;;5015939;28;20559;-82
2021/08/17 11:12:31;;;;;;;12.70;8.90;;;18.40;99.90;;;;;;5019764;28;20484;-83
2021/08/17 11:14:59;;;;;;;10.50;8.67;;;18.40;99.90;;;;;;5014957;28;20490;-81
2021/08/17 11:17:26;;;;;;;12.30;8.70;;;18.40;99.90;;;;;;5008760;28;20493;-81
2021/08/17 11:19:56;;;;;;;13.97;9.23;;;18.40;99.90;;;;;;5013334;28;20472;-83
2021/08/17 11:22:25;;;;;;;12.83;8.20;;;18.40;99.90;;;;;;5005834;28;20467;-84
2021/08/17 11:24:53;;;;;;;13.80;8.43;;;18.30;99.90;;;;;;5017014;28;20466;-83
2021/08/17 11:27:23;;;;;;;14.00;9.47;;;18.30;99.90;;;;;;5017653;28;20487;-82
2021/08/17 11:29:52;;;;;;;10.03;8.13;;;18.30;99.90;;;;;;5015964;28;20768;-81
2021/08/17 11:32:27;;;;;;;21.40;8.87;;;18.30;99.90;;;;;;5015898;28;20465;-83
2021/08/17 11:34:56;;;;;;;14.50;8.90;;;18.30;99.90;;;;;;5011024;28;20471;-82
2021/08/17 11:37:24;;;;;;;16.97;9.17;;;18.30;99.90;;;;;;5018148;28;20504;-84
2021/08/17 11:39:53;;;;;;;12.53;8.50;;;18.30;99.90;;;;;;5013461;28;20484;-82
2021/08/17 11:42:22;;;;;;;18.47;9.10;;;18.30;99.90;;;;;;5015628;28;20522;-81
2021/08/17 11:44:51;;;;;;;16.73;9.03;;;18.30;99.90;;;;;;5017823;28;20511;-82
2021/08/17 11:47:19;;;;;;;14.90;9.50;;;18.40;99.90;;;;;;5017975;28;20712;-82
2021/08/17 11:49:47;;;;;;;14.50;10.00;;;18.40;99.90;;;;;;5013504;28;20471;-82
2021/08/17 11:52:18;;;;;;;17.60;10.87;;;18.40;99.90;;;;;;5018139;28;20467;-82
2021/08/17 11:54:51;;;;;;;14.33;10.70;;;18.50;99.90;;;;;;5012889;28;20467;-82
2021/08/17 11:57:20;;;;;;;15.57;10.50;;;18.50;99.90;;;;;;5016809;28;20467;-82
2021/08/17 11:59:50;;;;;;;14.97;10.20;;;18.50;99.90;;;;;;5011350;28;20462;-82
2021/08/17 12:02:25;;;;;;;14.60;9.60;;;18.50;99.90;;;;;;5011964;28;20914;-82
2021/08/17 12:04:55;;;;;;;13.53;9.60;;;18.60;99.90;;;;;;5016582;28;20847;-83
2021/08/17 12:07:24;;;;;;;14.67;10.07;;;18.60;99.90;;;;;;5016470;28;20487;-83
2021/08/17 12:09:51;;;;;;;11.47;8.50;;;18.60;99.90;;;;;;5016286;28;20531;-81
2021/08/17 12:12:21;;;;;;;13.93;9.87;;;18.60;99.90;;;;;;5015873;28;21005;-83
2021/08/17 12:15:08;;;;;;;14.20;9.23;;;18.50;99.90;;;;;;5018797;28;20464;-81
2021/08/17 12:17:35;;;;;;;14.80;8.40;;;18.50;99.90;;;;;;5018191;28;20471;-83
2021/08/17 12:20:06;;;;;;;10.93;8.30;;;18.50;99.90;;;;;;5013233;28;20488;-82
2021/08/17 12:22:39;;;;;;;14.57;7.67;;;18.60;99.90;;;;;;5021302;28;20482;-82
2021/08/17 12:25:07;;;;;;;12.87;8.77;;;18.60;99.90;;;;;;5012783;28;20465;-81
2021/08/17 12:27:34;;;;;;;12.73;7.63;;;18.60;99.90;;;;;;5014376;28;20600;-81
2021/08/17 12:30:01;;;;;;;10.40;7.57;;;18.60;99.90;;;;;;5015039;28;20460;-82
2021/08/17 12:32:29;;;;;;;13.37;7.70;;;18.60;99.90;;;;;;5020176;28;20561;-81
2021/08/17 12:35:04;;;;;;;9.77;6.93;;;18.60;99.90;;;;;;5017514;28;20467;-81